»·PEaware :: N4139Q KGEG-KHQM

N4139Q :: KGEG-KHQM

FLIGHT INFORMATION

Flight Status: Arrived
Operator: Privately registered:
United States
More flights under this callsign
Pilot: Joey C. (6821)
Aircraft: BEECH AIRCRAFT SUPER KING AIR COMMUTER
(BE20)
More flights by this aircraft type
Origin: KGEG Spokane Intl
United States
Destination: KHQM Bowerman
United States
More flights between these airports :: More routes between these airports
Route: GEG6 GEG V120 SEA V27 OZALU
File this flight plan on PilotEdge
Remarks:
Altitude:
(Current/Filed)
16,000ft
Speed:
(Current/Filed)
265kts
Departed: 08-Oct-20 11:00 AM
Arrived: 08-Oct-20 12:33 PM
Distance/Time
Traveled:
263nm/1:33
Distance/Time
To Go:
Arrived

Flight Plot

Page will automatically refresh every two minutes.

Flight plan parsing failed; only flown route is shown


Map Options




Map Legend


Flown Route
Filed Route
Departure Airport
Arrival Airport
Navaid (VOR, NDB)
Fix

Horizontal Profiles

Position Reports

Time Latitude Longitude Heading Altitude Ground
Speed
08-Oct-20 10:44 47.620498 -117.526874 293 2358ft 0kts
08-Oct-20 10:45 47.620498 -117.526874 293 2358ft 0kts
08-Oct-20 10:46 47.620498 -117.526874 293 2358ft 0kts
08-Oct-20 10:47 47.620498 -117.526874 293 2358ft 0kts
08-Oct-20 10:48 47.620498 -117.526874 293 2358ft 0kts
08-Oct-20 10:49 47.620498 -117.526874 293 2358ft 0kts
08-Oct-20 10:50 47.620498 -117.526874 293 2358ft 0kts
08-Oct-20 10:51 47.620498 -117.526874 293 2358ft 0kts
08-Oct-20 10:53 47.620767 -117.527950 288 2358ft 10kts
08-Oct-20 10:54 47.622736 -117.527537 45 2354ft 13kts
08-Oct-20 10:55 47.626011 -117.522595 45 2344ft 25kts
08-Oct-20 10:56 47.630257 -117.517099 315 2323ft 14kts
08-Oct-20 10:57 47.630325 -117.517196 315 2323ft 0kts
08-Oct-20 10:58 47.630325 -117.517196 315 2323ft 0kts
08-Oct-20 10:59 47.630326 -117.517197 315 2323ft 0kts
08-Oct-20 11:00 47.624622 -117.528281 225 2388ft 123kts
08-Oct-20 11:01 47.600803 -117.569894 223 4578ft 138kts
08-Oct-20 11:02 47.572258 -117.612561 223 6520ft 157kts
08-Oct-20 11:03 47.558125 -117.669911 265 8557ft 164kts
08-Oct-20 11:04 47.554225 -117.737001 260 10574ft 164kts
08-Oct-20 11:05 47.547666 -117.805157 260 12349ft 166kts
08-Oct-20 11:06 47.540855 -117.874598 260 13890ft 169kts
08-Oct-20 11:07 47.533884 -117.945709 260 15562ft 173kts
08-Oct-20 11:08 47.525967 -118.025809 260 16007ft 224kts
08-Oct-20 11:09 47.516545 -118.120943 260 16001ft 246kts
08-Oct-20 11:10 47.506512 -118.220754 260 15999ft 251kts
08-Oct-20 11:11 47.496306 -118.321154 260 15998ft 252kts
08-Oct-20 11:11 47.487761 -118.404491 260 15993ft 252kts
08-Oct-20 11:13 47.475718 -118.520907 260 15983ft 252kts
08-Oct-20 11:13 47.466961 -118.604818 260 15979ft 252kts
08-Oct-20 11:14 47.456400 -118.705184 259 15983ft 252kts
08-Oct-20 11:15 47.445676 -118.806237 260 15982ft 252kts
08-Oct-20 11:16 47.434988 -118.906056 260 15981ft 253kts
08-Oct-20 11:17 47.424220 -119.005786 261 15981ft 254kts
08-Oct-20 11:18 47.413394 -119.105226 262 15981ft 255kts
08-Oct-20 11:19 47.402565 -119.203856 262 15981ft 255kts
08-Oct-20 11:20 47.391723 -119.301801 262 15980ft 255kts
08-Oct-20 11:21 47.380760 -119.400071 262 15976ft 255kts
08-Oct-20 11:22 47.380146 -119.498898 273 15972ft 255kts
08-Oct-20 11:23 47.383299 -119.597777 273 15970ft 255kts
08-Oct-20 11:24 47.386167 -119.695627 272 15973ft 255kts
08-Oct-20 11:25 47.388947 -119.793972 272 15971ft 255kts
08-Oct-20 11:26 47.391606 -119.891030 272 15964ft 255kts
08-Oct-20 11:27 47.394148 -119.986741 272 15956ft 255kts
08-Oct-20 11:28 47.396587 -120.081067 272 15954ft 255kts
08-Oct-20 11:29 47.398939 -120.174988 272 15953ft 255kts
08-Oct-20 11:30 47.401294 -120.268525 272 15953ft 255kts
08-Oct-20 11:31 47.403646 -120.361097 272 16007ft 254kts
08-Oct-20 11:32 47.405913 -120.453318 272 16007ft 255kts
08-Oct-20 11:33 47.408081 -120.545328 272 16016ft 255kts
08-Oct-20 11:34 47.410178 -120.636809 272 16033ft 254kts
08-Oct-20 11:35 47.412197 -120.727874 271 16054ft 255kts
08-Oct-20 11:36 47.414166 -120.821061 271 16055ft 255kts
08-Oct-20 11:37 47.416162 -120.917095 271 16055ft 255kts
08-Oct-20 11:38 47.418028 -121.010747 271 16055ft 255kts
08-Oct-20 11:39 47.419808 -121.103926 270 16054ft 255kts
08-Oct-20 11:40 47.421521 -121.197631 269 16053ft 254kts
08-Oct-20 11:41 47.423155 -121.291194 269 16079ft 254kts
08-Oct-20 11:42 47.424654 -121.381076 269 16110ft 253kts
08-Oct-20 11:43 47.426055 -121.469125 269 16134ft 253kts
08-Oct-20 11:44 47.427393 -121.557643 269 16134ft 254kts
08-Oct-20 11:45 47.428649 -121.645188 269 16134ft 254kts
08-Oct-20 11:46 47.429850 -121.734098 269 16138ft 254kts
08-Oct-20 11:47 47.430815 -121.823194 269 16137ft 254kts
08-Oct-20 11:48 47.431708 -121.911616 269 16137ft 254kts
08-Oct-20 11:49 47.432649 -121.999339 269 16137ft 254kts
08-Oct-20 11:50 47.433547 -122.086609 269 16136ft 254kts
08-Oct-20 11:51 47.434372 -122.174237 269 16136ft 254kts
08-Oct-20 11:52 47.429732 -122.260648 251 16136ft 252kts
08-Oct-20 11:53 47.411654 -122.336202 250 16133ft 253kts
08-Oct-20 11:54 47.391812 -122.418019 250 16133ft 253kts
08-Oct-20 11:55 47.372048 -122.498889 250 15164ft 245kts
08-Oct-20 11:56 47.352656 -122.578678 250 13868ft 241kts
08-Oct-20 11:57 47.332598 -122.661154 250 12602ft 238kts
08-Oct-20 11:58 47.314006 -122.737329 249 11600ft 235kts
08-Oct-20 11:59 47.297044 -122.806612 249 10684ft 235kts
08-Oct-20 12:00 47.280577 -122.873566 249 9674ft 230kts
08-Oct-20 12:01 47.266790 -122.929464 249 8779ft 227kts
08-Oct-20 12:02 47.252509 -122.987284 249 7847ft 226kts
08-Oct-20 12:03 47.239287 -123.040674 249 7200ft 214kts
08-Oct-20 12:04 47.227065 -123.089887 249 6587ft 209kts
08-Oct-20 12:05 47.215251 -123.137395 249 6128ft 201kts
08-Oct-20 12:06 47.203957 -123.182622 249 6114ft 186kts
08-Oct-20 12:07 47.193094 -123.226055 249 6117ft 184kts
08-Oct-20 12:08 47.182563 -123.268144 249 6117ft 183kts
08-Oct-20 12:09 47.172268 -123.309229 249 6117ft 183kts
08-Oct-20 12:10 47.162189 -123.349375 249 6117ft 183kts
08-Oct-20 12:11 47.152278 -123.388781 249 6120ft 183kts
08-Oct-20 12:12 47.143174 -123.425116 249 6122ft 158kts
08-Oct-20 12:13 47.135198 -123.455343 242 5933ft 152kts
08-Oct-20 12:14 47.118910 -123.477810 207 5400ft 156kts
08-Oct-20 12:15 47.101082 -123.489030 204 4951ft 157kts
08-Oct-20 12:16 47.079820 -123.501639 204 4420ft 157kts
08-Oct-20 12:17 47.058353 -123.514441 204 3899ft 156kts
08-Oct-20 12:18 47.038238 -123.526435 204 3837ft 139kts
08-Oct-20 12:19 47.021265 -123.543987 235 3567ft 146kts
08-Oct-20 12:20 47.014559 -123.576104 258 3132ft 154kts
08-Oct-20 12:21 47.010391 -123.612159 259 2671ft 157kts
08-Oct-20 12:22 47.006172 -123.648426 258 2408ft 149kts
08-Oct-20 12:23 47.002027 -123.682911 257 2255ft 144kts
08-Oct-20 12:24 46.998441 -123.712643 257 2252ft 128kts
08-Oct-20 12:25 46.994998 -123.741254 257 2255ft 130kts
08-Oct-20 12:26 46.991537 -123.769935 257 2254ft 128kts
08-Oct-20 12:27 46.988033 -123.798891 257 2039ft 128kts
08-Oct-20 12:28 46.984553 -123.827462 257 1613ft 124kts
08-Oct-20 12:29 46.981055 -123.856143 258 1190ft 118kts
08-Oct-20 12:30 46.978171 -123.882547 260 790ft 107kts
08-Oct-20 12:31 46.974131 -123.913528 259 289ft 103kts
08-Oct-20 12:32 46.971153 -123.937284 259 25ft 31kts
08-Oct-20 12:33 46.972096 -123.937630 79 27ft 17kts
08-Oct-20 12:34 46.973085 -123.930930 46 23ft 18kts

Navigation Log

Ident Type
Flight plan parsing failed, navigation log unavailable